Akron Fulton International Airport Akron US
ICAO: KAKR
IATA: AKC
Category: Medium
Scheduled Services: No

Elevation: 1067 ft
TransAlt. 18000 ft.

Airport Communications:
APP/DEP:118.6
ASOS:126.825
CTAF/UNICOM:123.075
CLEVELAND RDO:114.4

KAKR Zoom In..

If you have problems with the map follow the link
https://www.worldairports.se/pages/airport.php?
ICAO=KAKR

Runways:

(A) RW 01 length 2337 ft width 100 ft
LOC 110.90 / hdg 8

(B) RW 07 length 6336 ft width 150 ft
LOC 110.90 / hdg 69

(C) RW 19 length 2337 ft width 100 ft
LOC 110.90 / hdg 188

(D) RW 25 length 6336 ft width 150 ft
LOC 110.90 / hdg 249

Location; KAKR
Day. 17 / Time. 02.54 Zulu
* Altimeter: 30.06
* Temperature: 03° c. 37.4°f.
* Wind from: 250° Speed 07 kn.
Dewpoint: 01° c.
Visibility: 6 Statute Miles.
Clouds: Overcast 2000 ft.
Conditions: Mist.

KAKR 170254Z AUTO 25007KT 6SM BR OVC020 03/01 A3006 RMK AO2 SLP188 T00280006 51017


Wind From 250°
Speed 07 kn.

 
 
jpsmedia.com for Web Design worldairports.se 2018   terms of use